createdAt,value
2023-03-26T00:00:57.661Z,80.87
2023-03-26T00:06:06.044Z,80.42
2023-03-26T00:11:10.217Z,79.91
2023-03-26T00:16:13.841Z,80.32
2023-03-26T00:21:18.991Z,79.39
2023-03-26T00:26:20.616Z,79.92
2023-03-26T00:31:22.289Z,80.83
2023-03-26T00:36:26.828Z,82.81
2023-03-26T00:41:31.080Z,83.35
2023-03-26T00:46:33.091Z,83.57
2023-03-26T00:51:35.093Z,84.32
2023-03-26T00:56:37.089Z,84.27
2023-03-26T01:01:39.849Z,83.78
2023-03-26T01:06:43.372Z,83.34
2023-03-26T01:11:45.796Z,83.40
2023-03-26T01:16:53.690Z,83.68
2023-03-26T01:21:56.046Z,83.02
2023-03-26T01:27:09.641Z,82.10
2023-03-26T01:32:17.374Z,82.95
2023-03-26T01:37:37.013Z,82.65
2023-03-26T01:42:52.115Z,82.19
2023-03-26T01:47:55.009Z,83.20
2023-03-26T01:52:57.012Z,83.21
2023-03-26T01:58:29.272Z,84.27
2023-03-26T02:03:35.179Z,85.01
2023-03-26T02:09:08.621Z,86.73
2023-03-26T02:14:10.962Z,86.81
2023-03-26T02:19:16.080Z,86.77
2023-03-26T02:24:19.793Z,86.21
2023-03-26T02:29:22.284Z,86.60
2023-03-26T02:34:24.832Z,86.50
2023-03-26T02:39:28.961Z,87.37
2023-03-26T02:44:34.809Z,89.95
2023-03-26T02:49:36.547Z,90.70
2023-03-26T02:54:38.343Z,90.45
2023-03-26T02:59:57.912Z,89.99
2023-03-26T03:05:31.438Z,89.44
2023-03-26T03:11:00.918Z,90.15
2023-03-26T03:16:13.484Z,93.30
2023-03-26T03:21:15.319Z,95.16
2023-03-26T03:26:21.831Z,95.67
2023-03-26T03:31:28.492Z,94.94
2023-03-26T03:36:38.653Z,95.02
2023-03-26T03:41:56.484Z,94.54
2023-03-26T03:46:58.147Z,95.97
2023-03-26T03:51:59.849Z,96.87
2023-03-26T03:57:08.042Z,99.15
2023-03-26T04:02:26.319Z,100.00
2023-03-26T04:07:33.269Z,100.00
2023-03-26T04:12:37.788Z,97.84
2023-03-26T04:17:42.738Z,97.62
2023-03-26T04:22:46.735Z,97.33
2023-03-26T04:27:50.728Z,96.99
2023-03-26T04:32:58.593Z,96.65
2023-03-26T04:38:07.339Z,96.24
2023-03-26T04:43:16.359Z,93.77
2023-03-26T04:48:38.718Z,91.98
2023-03-26T04:53:43.749Z,91.72
2023-03-26T04:59:03.674Z,91.23
2023-03-26T05:04:09.246Z,90.16
2023-03-26T05:09:11.425Z,89.18
2023-03-26T05:14:36.316Z,89.32
2023-03-26T05:19:41.332Z,89.38
2023-03-26T05:24:43.034Z,88.20
2023-03-26T05:29:44.793Z,88.34
2023-03-26T05:34:46.730Z,88.69
2023-03-26T05:39:52.037Z,88.96
2023-03-26T05:45:31.939Z,87.49
2023-03-26T05:50:37.590Z,87.85
2023-03-26T05:55:40.682Z,86.50
2023-03-26T06:01:20.829Z,84.95
2023-03-26T06:06:58.018Z,82.86
2023-03-26T06:12:00.158Z,82.79
2023-03-26T06:17:04.422Z,82.91
2023-03-26T06:22:23.977Z,82.88
2023-03-26T06:27:45.983Z,83.89
2023-03-26T06:33:19.574Z,84.41
2023-03-26T06:38:25.473Z,84.54
2023-03-26T06:43:27.234Z,84.64
2023-03-26T06:48:48.150Z,85.13
2023-03-26T06:54:25.361Z,84.37
2023-03-26T06:59:43.085Z,84.80
2023-03-26T07:05:03.713Z,83.60
2023-03-26T07:10:23.745Z,82.54
2023-03-26T07:15:43.927Z,82.79
2023-03-26T07:20:57.833Z,82.02
2023-03-26T07:26:54.062Z,81.92
2023-03-26T07:32:24.095Z,82.46
2023-03-26T07:38:01.207Z,81.96
2023-03-26T07:43:24.424Z,81.92
2023-03-26T07:48:49.313Z,82.11
2023-03-26T07:54:11.578Z,82.51
2023-03-26T07:59:44.693Z,81.70
2023-03-26T08:05:18.880Z,82.05
2023-03-26T08:10:45.117Z,80.61
2023-03-26T08:15:58.139Z,79.66
2023-03-26T08:21:11.168Z,78.66
2023-03-26T08:26:39.104Z,78.59
2023-03-26T08:31:44.171Z,77.68
2023-03-26T08:36:46.150Z,77.24
2023-03-26T08:42:19.898Z,77.49
2023-03-26T08:47:40.073Z,76.33
2023-03-26T08:52:59.154Z,76.89
2023-03-26T08:58:23.829Z,76.95
2023-03-26T09:03:50.630Z,74.29
2023-03-26T09:09:05.488Z,75.59
2023-03-26T09:14:31.078Z,74.76
2023-03-26T09:20:14.459Z,73.49
2023-03-26T09:25:41.587Z,74.45
2023-03-26T09:30:53.429Z,72.59
2023-03-26T09:36:09.622Z,71.54
2023-03-26T09:41:17.174Z,67.41
2023-03-26T09:46:31.144Z,59.39
2023-03-26T09:51:33.271Z,57.64
2023-03-26T09:57:16.470Z,60.97
2023-03-26T10:02:46.745Z,64.13
2023-03-26T10:08:20.461Z,67.05
2023-03-26T10:13:26.216Z,65.16
2023-03-26T10:18:52.815Z,63.79
2023-03-26T10:24:22.509Z,64.23
2023-03-26T10:29:57.195Z,66.38
2023-03-26T10:35:28.797Z,66.19
2023-03-26T10:40:42.852Z,65.06
2023-03-26T10:45:44.473Z,59.53
2023-03-26T10:50:59.968Z,57.70
2023-03-26T10:56:31.341Z,55.29
2023-03-26T11:01:44.847Z,56.26
2023-03-26T11:06:58.156Z,55.79
2023-03-26T11:12:26.210Z,57.35
2023-03-26T11:17:40.582Z,50.30
2023-03-26T11:23:02.795Z,53.29
2023-03-26T11:28:23.792Z,55.74
2023-03-26T11:33:37.895Z,57.12
2023-03-26T11:38:50.588Z,57.05
2023-03-26T11:44:05.398Z,56.97
2023-03-26T11:49:12.572Z,53.56
2023-03-26T11:54:15.184Z,50.13
2023-03-26T11:59:27.340Z,51.16
2023-03-26T12:04:36.704Z,56.44
2023-03-26T12:09:51.038Z,56.10
2023-03-26T12:14:53.125Z,58.07
2023-03-26T12:19:54.706Z,57.90
2023-03-26T12:25:19.625Z,59.58
2023-03-26T12:30:22.841Z,59.15
2023-03-26T12:35:27.742Z,57.86
2023-03-26T12:40:34.320Z,58.31
2023-03-26T12:45:42.788Z,57.98
2023-03-26T12:51:08.195Z,58.33
2023-03-26T12:56:27.291Z,59.06
2023-03-26T13:01:51.897Z,59.91
2023-03-26T13:07:01.716Z,58.57
2023-03-26T13:12:32.000Z,58.36
2023-03-26T13:18:15.593Z,58.68
2023-03-26T13:23:26.778Z,59.81
2023-03-26T13:28:43.765Z,60.94
2023-03-26T13:33:57.616Z,61.49
2023-03-26T13:39:20.399Z,65.77
2023-03-26T13:44:40.590Z,70.11
2023-03-26T13:49:51.908Z,71.48
2023-03-26T13:55:20.380Z,73.46
2023-03-26T14:01:04.082Z,73.86
2023-03-26T14:06:12.945Z,72.94
2023-03-26T14:11:21.249Z,72.61
2023-03-26T14:16:29.735Z,76.26
2023-03-26T14:21:52.381Z,79.40
2023-03-26T14:27:03.373Z,80.45
2023-03-26T14:32:33.431Z,81.78
2023-03-26T14:38:00.732Z,83.19
2023-03-26T14:43:29.883Z,83.56
2023-03-26T14:48:37.302Z,84.09
2023-03-26T14:53:44.242Z,85.06
2023-03-26T14:59:07.867Z,84.52
2023-03-26T15:04:43.730Z,83.61
2023-03-26T15:10:14.674Z,84.58
2023-03-26T15:15:38.165Z,85.63
2023-03-26T15:20:48.540Z,87.62
2023-03-26T15:26:04.390Z,88.60
2023-03-26T15:31:16.727Z,90.60
2023-03-26T15:36:56.454Z,92.14
2023-03-26T15:42:21.985Z,94.18
2023-03-26T15:47:51.425Z,94.16
2023-03-26T15:53:06.727Z,97.40
2023-03-26T15:58:18.303Z,99.66
2023-03-26T16:03:34.313Z,100.00
2023-03-26T16:09:09.494Z,100.00
2023-03-26T16:14:24.605Z,100.00
2023-03-26T16:19:41.134Z,100.00
2023-03-26T16:24:47.732Z,100.00
2023-03-26T16:30:07.037Z,100.00
2023-03-26T16:35:28.599Z,100.00
2023-03-26T16:40:49.093Z,100.00
2023-03-26T16:46:02.501Z,100.00
2023-03-26T16:51:22.857Z,100.00
2023-03-26T16:56:44.771Z,100.00
2023-03-26T17:01:50.934Z,100.00
2023-03-26T17:07:14.300Z,100.00
2023-03-26T17:12:40.794Z,100.00
2023-03-26T17:18:03.930Z,100.00
2023-03-26T17:23:31.229Z,100.00
2023-03-26T17:28:53.282Z,100.00
2023-03-26T17:33:55.321Z,100.00
2023-03-26T17:39:01.037Z,100.00
2023-03-26T17:44:48.378Z,100.00
2023-03-26T17:49:54.803Z,100.00
2023-03-26T17:54:57.183Z,100.00
2023-03-26T18:00:00.954Z,100.00
2023-03-26T18:05:06.175Z,100.00
2023-03-26T18:10:33.174Z,100.00
2023-03-26T18:15:48.918Z,100.00
2023-03-26T18:20:52.199Z,100.00
2023-03-26T18:26:23.142Z,100.00
2023-03-26T18:31:26.884Z,100.00
2023-03-26T18:36:31.134Z,100.00
2023-03-26T18:41:41.559Z,100.00
2023-03-26T18:46:44.089Z,100.00
2023-03-26T18:51:56.071Z,100.00
2023-03-26T18:57:15.463Z,100.00
2023-03-26T19:02:19.673Z,100.00
2023-03-26T19:07:25.291Z,100.00
2023-03-26T19:12:33.189Z,100.00
2023-03-26T19:17:45.095Z,100.00
2023-03-26T19:22:48.041Z,100.00
2023-03-26T19:27:51.776Z,100.00
2023-03-26T19:32:54.061Z,100.00
2023-03-26T19:37:55.815Z,100.00
2023-03-26T19:42:58.149Z,100.00
2023-03-26T19:48:12.242Z,100.00
2023-03-26T19:53:24.176Z,100.00
2023-03-26T19:58:26.789Z,100.00
2023-03-26T20:03:40.331Z,100.00
2023-03-26T20:08:42.855Z,100.00
2023-03-26T20:13:44.511Z,100.00
2023-03-26T20:18:46.138Z,100.00
2023-03-26T20:23:48.003Z,100.00
2023-03-26T20:28:53.482Z,100.00
2023-03-26T20:33:56.481Z,100.00
2023-03-26T20:38:58.272Z,100.00
2023-03-26T20:43:59.947Z,100.00
2023-03-26T20:49:01.550Z,100.00
2023-03-26T20:54:03.157Z,100.00
2023-03-26T20:59:11.070Z,100.00
2023-03-26T21:04:14.330Z,100.00
2023-03-26T21:09:23.591Z,100.00
2023-03-26T21:14:39.083Z,100.00
2023-03-26T21:19:41.404Z,100.00
2023-03-26T21:24:45.750Z,100.00
2023-03-26T21:29:47.721Z,100.00
2023-03-26T21:34:58.589Z,100.00
2023-03-26T21:40:11.489Z,100.00
2023-03-26T21:45:13.580Z,100.00
2023-03-26T21:50:18.592Z,100.00
2023-03-26T21:55:23.440Z,100.00
2023-03-26T22:00:42.798Z,100.00
2023-03-26T22:06:02.205Z,100.00
2023-03-26T22:11:03.854Z,100.00
2023-03-26T22:16:07.647Z,100.00
2023-03-26T22:21:09.720Z,100.00
2023-03-26T22:26:11.546Z,100.00
2023-03-26T22:31:13.310Z,100.00
2023-03-26T22:36:22.497Z,100.00
2023-03-26T22:41:25.831Z,100.00
2023-03-26T22:46:27.775Z,100.00
2023-03-26T22:51:30.261Z,100.00
2023-03-26T22:56:32.034Z,100.00
2023-03-26T23:01:34.459Z,100.00
2023-03-26T23:06:36.094Z,100.00
2023-03-26T23:11:37.726Z,100.00
2023-03-26T23:16:39.439Z,100.00
2023-03-26T23:21:41.399Z,100.00
2023-03-26T23:26:50.573Z,100.00
2023-03-26T23:31:54.623Z,100.00
2023-03-26T23:36:58.049Z,100.00
2023-03-26T23:41:59.717Z,100.00
2023-03-26T23:47:01.341Z,100.00
2023-03-26T23:52:04.947Z,100.00
2023-03-26T23:57:06.576Z,100.00
